Tiempo atmosférico en la estación meteorológica de Vitoria Gasteiz Aeropuerto Foronda, Araba/Álava (513 m.)



Fecha
DESCASC
Temp. máxima en grados centígrados (hora)
DESCASC
Temp. mínima en grados centígrados (hora)
DESCASC
Temp. media en grados centígrados
DESCASC
Racha de viento máxima en m/sg (hora)
DESCASC
Velocidad máxima media en intervalos de 10 minutos(hora)
DESCASC
Precipitaciones diarias en mm
DESCASC
Precipitaciones de 00:00 a 06:00 en mm
DESCASC
Precipitaciones de 06:00 a 12:00 en mm
DESCASC
Precipitaciones de 12:00 a 18:00 en mm
DESCASC
Precipitaciones de 18:00 a 24:00 en mm
DESCASC

Gráficas

Temp. máximas Temp. mínimas Temp. medias Precipitaciones Rachas de viento máximas Velocidades máximas media en intervalos de 10 minutos

Datos horarios

Fecha y hora oficial Temperatura (ºC) Velocidad del viento (km/h) Dirección del viento Racha (km/h) Dirección de racha Precipitación (mm) Presión (hPa) Tendencia (hPa) Humedad (%)
2020-07-11 23:00:00 17.3 18 Norte 26 Norte 0 961.7 0.8 83
2020-07-11 22:00:00 18.3 18 Norte 30 Norte 0 961.2 0.5 78
2020-07-11 21:00:00 20 21 Norte 33 Norte 0 961.1 0.1 70
2020-07-11 20:00:00 21.6 22 Norte 33 Nordeste 0 960.9 -0.5 63
2020-07-11 19:00:00 22.8 23 Norte 35 Norte 0 960.7 -0.9 57
2020-07-11 18:00:00 23.5 22 Norte 33 Norte 0 961 -1.1 57
2020-07-11 17:00:00 23.7 21 Norte 33 Norte 0 961.4 -1.2 56
2020-07-11 16:00:00 23.7 24 Norte 37 Nordeste 0 961.6 -1.3 55
2020-07-11 15:00:00 22.9 23 Nordeste 39 Norte 0 962.1 -0.9 56
2020-07-11 14:00:00 21.9 26 Norte 39 Norte 0 962.6 -0.5 58
2020-07-11 13:00:00 21.2 19 Nordeste 35 Norte 0 962.9 -0.3 60
2020-07-11 12:00:00 19.3 19 Norte 30 Norte 0 963 -0.1 68
2020-07-11 11:00:00 18.8 18 Norte 30 Nordeste 0 963.1 -- 68
2020-07-11 10:00:00 16.9 12 Nordeste 22 Nordeste 0 963.2 -- 78
2020-07-11 09:00:00 15.9 6 Norte 13 Nordeste 0 963.1 -- 83
2020-07-11 08:00:00 15.1 9 Nordeste 13 Nordeste 0 963 -- 84
2020-07-11 07:00:00 14.6 3 Este 11 Norte 0 962.8 -- 88
2020-07-11 06:00:00 14.9 5 Noroeste 11 Noroeste 0 962.7 -- 85
2020-07-11 05:00:00 14.7 0 Calma 9 Nordeste 0 962.7 -- 83
2020-07-11 04:00:00 14.8 6 Norte 13 Noroeste 0 962.8 -- 85
2020-07-11 03:00:00 14.9 8 Norte -- -- -- 963.2 -- 87
2020-07-11 02:00:00 15 5 Norte 11 Norte 0 963.4 0.5 86
2020-07-11 01:00:00 15.6 10 Norte 21 Norte 0 963.4 -- 83
2020-07-11 00:00:00 15.8 16 Norte 22 Norte 0 963.2 -- 85
2020-07-10 23:00:00 15.9 13 Norte 24 Nordeste 0 962.9 -- 88
2020-07-10 22:00:00 16.2 13 Norte 26 Norte 0 962.2 -- 88
2020-07-10 21:00:00 16.8 14 Norte 22 Norte 0 961.9 -- 87
2020-07-10 20:00:00 17.3 15 Norte 30 Norte 0 961.8 -- 83
2020-07-10 19:00:00 17.7 20 Norte 32 Norte 0 961.4 -- 83
2020-07-10 18:00:00 18.4 23 Norte 37 Nordeste 0 961.3 -- 77
2020-07-10 17:00:00 19.2 22 Norte 33 Norte 0 961 -- 72
2020-07-10 16:00:00 19.8 22 Nordeste 33 Norte 0 961.1 -- 73
2020-07-10 15:00:00 20.2 17 Nordeste 30 Nordeste 0 961.2 -- 74
2020-07-10 14:00:00 19.4 21 Norte 35 Nordeste 0 961.5 0.3 78
2020-07-10 13:00:00 19.9 26 Nordeste 33 Nordeste 0 961.5 -- 74
2020-07-10 12:00:00 19 21 Nordeste 32 Nordeste 0 961.3 -- 79
2020-07-10 11:00:00 19.7 19 Norte 26 Norte 0 961.2 0.1 74
2020-07-10 10:00:00 18.4 9 Norte 17 Norte 0 961.2 -- 77
2020-07-10 09:00:00 17 9 Norte 15 Norte 0 961.2 -- 85
2020-07-10 08:00:00 15.4 0 Calma 8 Noroeste 0 961.1 -- 95
2020-07-10 07:00:00 13.9 4 Nordeste 9 Nordeste 0 960.7 -- 96
2020-07-10 06:00:00 13.7 5 Nordeste 11 Nordeste 0 960.6 -- 95
2020-07-10 05:00:00 13.6 0 Calma 5 Sudeste 0 960.7 -- 95
2020-07-10 04:00:00 14.4 4 Este 8 Nordeste 0 960.7 -- 93
2020-07-10 03:00:00 15.6 6 Este -- -- -- 961 -- 89
2020-07-10 02:00:00 17.2 6 Oeste 18 Norte 0 961.7 -- 85
2020-07-10 01:00:00 18.1 9 Norte 22 Norte 0 962 -- 83
2020-07-10 00:00:00 18.5 13 Norte 21 Norte 0 961.5 -- 82
2020-07-09 23:00:00 18.6 10 Norte 22 Norte 0 960.9 -- 83
2020-07-09 22:00:00 19.3 12 Norte 30 Norte 0 960.3 -- 82
2020-07-09 21:00:00 21.7 17 Nordeste 28 Nordeste 0 959.7 -- 73
2020-07-09 20:00:00 23.3 22 Norte 30 Norte 0 959.5 -- 71
2020-07-09 19:00:00 24.2 24 Norte 35 Norte 0 959.2 -- 68
2020-07-09 18:00:00 26.1 27 Norte 41 Nordeste 0 959 -- 64
2020-07-09 17:00:00 27.4 24 Nordeste 37 Nordeste 0 958.8 -- 59
2020-07-09 16:00:00 27.8 24 Nordeste 33 Nordeste 0 959.2 -- 57
2020-07-09 15:00:00 27.9 17 Norte 28 Norte 0 959.5 -- 56
2020-07-09 14:00:00 27.4 14 Nordeste 22 Norte 0 959.8 -- 54
2020-07-09 13:00:00 25.9 14 Norte 28 Norte 0 960 -- 57
2020-07-09 12:00:00 24.1 12 Norte 28 Nordeste 0 960.5 -- 62
2020-07-09 11:00:00 23 11 Este 18 Nordeste 0 960.2 -- 66
2020-07-09 10:00:00 20.1 8 Este 15 Nordeste 0 960.2 -- 72
2020-07-09 09:00:00 17.5 5 Este 11 Este 0 959.9 -- 82
2020-07-09 08:00:00 14.8 5 Noroeste 9 Noroeste 0 960.1 -- 94
2020-07-09 07:00:00 12.8 4 Nordeste 9 Oeste 0 959.4 -- 94
2020-07-09 06:00:00 13.7 0 Calma 11 Norte 0 958.9 -- 93
2020-07-09 05:00:00 13.9 8 Nordeste 13 Nordeste 0 958.9 -- 94
2020-07-09 04:00:00 15.2 5 Nordeste 15 Este 0 959.2 -- 89
2020-07-09 03:00:00 15.6 13 Este -- -- -- 959.3 -- 88
2020-07-09 02:00:00 16.8 8 Nordeste 11 Norte 0 960.3 -- 84
2020-07-09 01:00:00 17.3 3 Sudoeste 13 Este 0 960.3 -- 84
2020-07-09 00:00:00 19.1 7 Oeste 18 Este 0 960.1 -- 75
2020-07-08 23:00:00 20 10 Nordeste 22 Noroeste 0 959 -- 72
2020-07-08 22:00:00 21.4 8 Noroeste 24 Noroeste 0 958.2 -- 68
2020-07-08 21:00:00 23.7 15 Noroeste 26 Norte 0 957.9 -- 64
2020-07-08 20:00:00 25.3 20 Norte 32 Norte 0 957.3 -- 62
2020-07-08 19:00:00 26 20 Norte 33 Norte 0 956.8 -- 61
2020-07-08 18:00:00 28.3 23 Norte 30 Norte 0 956.7 -- 55
2020-07-08 17:00:00 28.8 22 Norte 32 Norte 0 957.1 -- 53
2020-07-08 16:00:00 28.8 18 Nordeste 30 Nordeste 0 957.3 -- 52
2020-07-08 15:00:00 28.4 14 Norte 26 Norte 0 957.9 -- 51
2020-07-08 14:00:00 26.8 12 Norte 22 Nordeste 0 958.4 -- 50
2020-07-08 13:00:00 25.7 12 Norte 21 Nordeste 0 958.9 -- 52
2020-07-08 12:00:00 23.8 7 Norte 15 Nordeste 0 959 -- 53
2020-07-08 11:00:00 20.9 6 Este 15 Sudeste 0 959.2 -- 63
2020-07-08 10:00:00 17.8 4 Norte 9 Nordeste 0 959.4 -- 76
2020-07-08 09:00:00 14.9 5 Nordeste 9 Este 0 959.6 -- 88
2020-07-08 08:00:00 11.7 3 Este 8 Nordeste 0 959.4 -- 98
2020-07-08 07:00:00 9.5 3 Nordeste 5 Nordeste 0 959 -- 97
2020-07-08 06:00:00 9.9 6 Nordeste 9 Nordeste 0 959 -- 98
2020-07-08 05:00:00 10 5 Nordeste 8 Nordeste 0 959.3 -- 96
2020-07-08 04:00:00 11.4 0 Calma 5 Sudeste 0 959.5 -- 95
2020-07-08 03:00:00 12.7 4 Sudeste 15 Norte 0 960 -- 92
2020-07-08 02:00:00 13.8 10 Norte 13 Norte 0 960.3 -- 94
2020-07-08 01:00:00 14.7 3 Este 15 Norte 0 960.4 -- 89
2020-07-08 00:00:00 15.9 11 Norte 21 Norte 0 960.6 -- 87
2020-07-07 23:00:00 16.7 11 Norte 17 Norte 0 960.4 -- 84
2020-07-07 22:00:00 18.2 12 Norte 26 Norte 0 959.7 -- 77
2020-07-07 21:00:00 20.5 19 Norte 28 Norte 0 959.5 -- 69
2020-07-07 20:00:00 22.4 22 Norte 33 Norte 0 959.2 -0.4 62
2020-07-07 19:00:00 23.7 24 Nordeste 33 Norte 0 959.1 -1 56
2020-07-07 18:00:00 25 20 Nordeste 32 Nordeste 0 959.3 -1.1 53
2020-07-07 17:00:00 24.9 17 Nordeste 30 Nordeste 0 959.6 -1.3 51
2020-07-07 16:00:00 24.4 17 Nordeste 33 Nordeste 0 960.1 -1.4 50
2020-07-07 15:00:00 23 16 Norte 32 Norte 0 960.4 -1.5 51
2020-07-07 14:00:00 21.8 18 Norte 30 Norte 0 960.9 -1.2 55
2020-07-07 13:00:00 20.4 17 Norte 30 Norte 0 961.5 -0.8 61
2020-07-07 12:00:00 18.5 14 Norte 26 Nordeste 0 961.9 -0.6 66
2020-07-07 11:00:00 17.4 12 Nordeste 26 Nordeste 0 962.1 -0.3 66
2020-07-07 10:00:00 15.8 16 Norte 26 Nordeste 0 962.3 -0.2 70
2020-07-07 09:00:00 14.9 12 Norte 18 Norte 0 962.5 -0.3 70
2020-07-07 08:00:00 13 5 Norte 15 Norte 0 962.4 -0.7 77
2020-07-07 07:00:00 12 7 Norte 13 Norte 0 962.5 -- 80
2020-07-07 06:00:00 12.2 4 Norte 11 Norte 0 962.8 -- 85
2020-07-07 05:00:00 12.5 5 Norte 18 Noroeste 0 963.1 -- 79
2020-07-07 04:00:00 12.5 10 Norte 15 Norte 0 963.6 -- 78
2020-07-07 03:00:00 12.5 10 Norte 18 Norte 0 964.1 -- 81
2020-07-07 02:00:00 12.3 8 Norte 18 Norte 0 964.4 -- 86
2020-07-07 01:00:00 11 7 Nordeste 11 Nordeste 0 964.8 -- 94
2020-07-07 00:00:00 11.2 9 Norte -- -- 0 965.2 -- 95
2020-07-06 23:00:00 12.4 7 Norte 21 Nordeste 0 965.2 -- 89
2020-07-06 22:00:00 14.2 14 Nordeste 30 Norte 0 964.8 -- 84
2020-07-06 21:00:00 16.4 19 Norte 28 Norte 0 964.7 -- 79
2020-07-06 20:00:00 17.5 20 Nordeste 32 Nordeste 0 964.8 -- 79
2020-07-06 19:00:00 18 20 Nordeste 32 Nordeste 0 964.9 -- 79
2020-07-06 18:00:00 17.8 22 Nordeste 30 Nordeste 0 965.2 -- 81
2020-07-06 17:00:00 19.1 21 Nordeste 33 Norte 0 965.2 -- 77
2020-07-06 16:00:00 18.8 22 Nordeste 35 Nordeste 0 965.2 -- 79
2020-07-06 15:00:00 20.3 20 Nordeste 32 Norte 0 965.1 -- 73
2020-07-06 14:00:00 22.8 25 Norte 39 Norte 0 965 -- 62
2020-07-06 13:00:00 20.7 25 Norte 39 Norte 0 965 -- 73
2020-07-06 12:00:00 21.2 26 Norte 37 Norte 0 964.8 -- 66
2020-07-06 11:00:00 20.7 21 Nordeste 30 Nordeste 0 964.5 -- 75
2020-07-06 10:00:00 18 11 Noroeste 17 Noroeste 0 964.6 -- 86
2020-07-06 09:00:00 17.4 4 Noroeste 9 Oeste 0 964.4 -- 86
2020-07-06 08:00:00 16.7 3 Noroeste 5 Oeste 0 964.3 -- 89
2020-07-06 07:00:00 16.1 3 Sudeste 5 Este 0 964 -- 93
2020-07-06 06:00:00 16.2 4 Nordeste 13 Noroeste 0 963.8 -- 90
2020-07-06 05:00:00 15.7 4 Sudoeste 9 Sudoeste 0 963.9 -- 91
2020-07-06 04:00:00 15.2 0 Calma 4 Oeste 0 964.1 -- 91
2020-07-06 03:00:00 14.3 0 Calma 8 Nordeste 0 964.5 -- 92
2020-07-06 02:00:00 13.1 8 Nordeste 13 Nordeste 0 965 -- 91
2020-07-06 01:00:00 14.1 12 Nordeste 15 Nordeste 0 965 -- 90
2020-07-06 00:00:00 14.8 9 Nordeste 17 Norte 0 964.8 -- 86
2020-07-05 23:00:00 16.6 9 Nordeste 13 Norte 0 964.2 -- 79
2020-07-05 22:00:00 19.6 13 Norte 26 Nordeste 0 963.6 -- 69
2020-07-05 21:00:00 22.2 19 Nordeste 33 Nordeste 0 963.2 -- 62
2020-07-05 20:00:00 23.7 25 Nordeste 35 Nordeste 0 962.9 -- 57
2020-07-05 19:00:00 25.3 28 Nordeste 42 Nordeste 0 962.6 -- 54
2020-07-05 18:00:00 27.4 26 Norte 35 Norte 0 962.7 -- 50
2020-07-05 17:00:00 28.4 24 Nordeste 35 Nordeste 0 962.7 -- 45
2020-07-05 16:00:00 28.6 19 Nordeste 32 Norte 0 962.8 -- 44
2020-07-05 15:00:00 28.5 18 Nordeste 41 Nordeste 0 962.9 -- 44
2020-07-05 14:00:00 27.9 12 Nordeste 24 Nordeste 0 963.4 -- 43
2020-07-05 13:00:00 26.8 9 Nordeste 17 Nordeste 0 963.9 -- 45
2020-07-05 12:00:00 24.8 5 Sur 11 Sur 0 964.4 -- 41
2020-07-05 11:00:00 22 3 Oeste 11 Sudeste 0 964.8 -- 41
2020-07-05 10:00:00 18.5 4 Sur 8 Sur 0 965.1 -- 54
2020-07-05 09:00:00 15 3 Noroeste 5 Noroeste 0 965 -- 67
2020-07-05 08:00:00 11.3 3 Oeste 8 Oeste 0 965 -- 80
2020-07-05 07:00:00 8 6 Nordeste 9 Nordeste 0 965.1 -- 90
2020-07-05 06:00:00 8.2 7 Este 8 Sudeste 0 964.9 -- 90
2020-07-05 05:00:00 8.8 2 Norte 5 Norte 0 964.8 -- 87
2020-07-05 04:00:00 9.1 3 Sur -- -- 0 965.2 -- 89
2020-07-05 03:00:00 10 0 Calma 11 Norte 0 965.7 -- 86
2020-07-05 02:00:00 11.2 7 Este 11 Nordeste 0 966.1 -- 84
2020-07-05 01:00:00 13.3 4 Norte 9 Norte 0 966.5 -- 76
2020-07-05 00:00:00 14.4 3 Sudeste 13 Sudeste 0 966.4 -- 70
2020-07-04 23:00:00 15.6 8 Este 17 Nordeste 0 966 -- 64
2020-07-04 22:00:00 18.3 12 Nordeste 22 Nordeste 0 965.5 -- 57
2020-07-04 21:00:00 21.9 17 Nordeste 26 Nordeste 0 965.2 -- 41
2020-07-04 20:00:00 23.9 20 Nordeste 32 Nordeste 0 964.6 -- 34
2020-07-04 19:00:00 24.8 23 Nordeste 35 Nordeste 0 964.5 -- 36
2020-07-04 18:00:00 25.5 27 Nordeste 35 Nordeste 0 964.5 -- 34
2020-07-04 17:00:00 26.3 23 Nordeste 32 Nordeste 0 964.5 -- 32
2020-07-04 16:00:00 26 14 Nordeste 26 Nordeste 0 964.5 -- 36
2020-07-04 15:00:00 25 9 Este 26 Este 0 964.9 -- 39
2020-07-04 14:00:00 24.2 5 Nordeste 22 Norte 0 965.4 -- 46
2020-07-04 13:00:00 22.4 6 Nordeste 15 Norte 0 965.5 -- 49
2020-07-04 12:00:00 20.1 6 Nordeste 13 Nordeste 0 965.7 -- 53
2020-07-04 11:00:00 17.2 3 Este 9 Sur 0 965.8 -- 66
2020-07-04 10:00:00 13.3 4 Sudeste 9 Este 0 966.2 -- 81
2020-07-04 09:00:00 9.3 4 Nordeste 8 Nordeste 0 965.9 -- 96
2020-07-04 08:00:00 7 4 Noroeste -- -- 0 966.1 -- 98
2020-07-04 07:00:00 5.9 4 Nordeste 8 Nordeste 0 965.7 -- 99
2020-07-04 06:00:00 4.7 8 Nordeste -- -- 0 965.4 -- 98
2020-07-04 05:00:00 5.2 -- -- -- -- 0 965.4 -- 97
2020-07-04 04:00:00 6.4 3 Oeste 8 Noroeste 0 965.5 -- 97
2020-07-04 03:00:00 6.6 0 Calma 8 Nordeste 0 966.1 -- 96
2020-07-04 02:00:00 7.8 0 Calma 8 Nordeste 0 966.2 -- 93
2020-07-04 01:00:00 9.6 4 Norte 8 Norte 0 966.2 -- 95
2020-07-04 00:00:00 10.7 2 Sudoeste 11 Norte 0 966.2 -- 92
2020-07-03 23:00:00 -- 9 Nordeste 18 Norte 0 965.9 -- --
2020-07-03 22:00:00 14.7 16 Norte 26 Norte 0 965.1 -- 76
2020-07-03 21:00:00 16.6 18 Norte 30 Nordeste 0 964.9 -- 68
2020-07-03 20:00:00 18.2 21 Norte 32 Nordeste 0 964.4 -- 63
2020-07-03 19:00:00 19.6 19 Norte 32 Nordeste 0 964.2 -- 58
2020-07-03 18:00:00 19.5 23 Nordeste 35 Nordeste 0 964.3 -- 58
2020-07-03 17:00:00 19.5 21 Nordeste 33 Nordeste 0 964.6 -- 56
2020-07-03 16:00:00 18.8 23 Norte 35 Norte 0 964.7 -- 62
2020-07-03 15:00:00 18.1 19 Nordeste 33 Nordeste 0 965 -- 64
2020-07-03 14:00:00 17.8 18 Nordeste 32 Norte 0 965.2 -- 62
2020-07-03 13:00:00 20.2 17 Nordeste 33 Nordeste 0 965 -- 54
2020-07-03 12:00:00 18.9 19 Norte 32 Nordeste 0 964.9 -- 52
2020-07-03 11:00:00 16.6 13 Nordeste 26 Norte 0 964.8 -- 65
2020-07-03 10:00:00 16.4 15 Nordeste 24 Nordeste 0 964.8 -- 68
2020-07-03 09:00:00 15.1 10 Norte 21 Norte 0 964.8 -- 73
2020-07-03 08:00:00 13.3 5 Norte 9 Norte 0 964.6 -- 80
2020-07-03 07:00:00 12.8 3 Oeste 8 Oeste 0 964.3 -- 87
2020-07-03 06:00:00 13.1 4 Oeste 15 Norte 0 964 -- 84
2020-07-03 05:00:00 13.3 8 Norte 17 Noroeste 0 964 -- 85
2020-07-03 04:00:00 13.2 9 Oeste 13 Noroeste 0 964.1 -- 86
2020-07-03 03:00:00 13.3 8 Noroeste 17 Noroeste 0 964.2 -- 85
2020-07-03 02:00:00 13.4 8 Noroeste 15 Noroeste 0 964.2 -- 84
2020-07-03 01:00:00 13.7 8 Noroeste 15 Noroeste 0 964.2 -- 84
2020-07-03 00:00:00 13.8 11 Noroeste 15 Noroeste 0 964.2 -- 84
2020-07-02 23:00:00 14 12 Noroeste 26 Noroeste 0 963.7 -- 84
2020-07-02 22:00:00 14.5 15 Noroeste 26 Norte 0 963.1 -- 79
2020-07-02 21:00:00 15.1 17 Norte 30 Norte 0 962.7 -- 76
2020-07-02 20:00:00 15.8 18 Norte 33 Norte 0 962.2 -- 72
2020-07-02 19:00:00 15.9 22 Norte 33 Norte 0 961.9 -- 69
2020-07-02 18:00:00 15.9 25 Norte 39 Norte 0 961.4 -- 75
2020-07-02 17:00:00 17.1 25 Norte 39 Norte 0 961 -- 74
2020-07-02 16:00:00 16.8 23 Norte 33 Norte 0 961 -- 78
2020-07-02 15:00:00 18.1 17 Noroeste 26 Noroeste 0 960.9 -- 76
2020-07-02 14:00:00 17.9 14 Norte 26 Nordeste 0 960.7 -- 76
2020-07-02 13:00:00 17.9 10 Noroeste 22 Norte 0 960.5 -- 76
2020-07-02 12:00:00 18 13 Norte 24 Nordeste 0 960.1 -- 76
2020-07-02 11:00:00 17.1 11 Norte 18 Noroeste 0 959.9 -- 79
2020-07-02 10:00:00 16.6 14 Nordeste 22 Nordeste 0 959.8 -- 81
2020-07-02 09:00:00 16 2 Norte 21 Noroeste 0 959.3 -- 85
2020-07-02 08:00:00 15.1 11 Norte 17 Norte 0 958.8 -- 89
2020-07-02 07:00:00 14.9 11 Norte 18 Norte 0 958.9 -- 88
2020-07-02 06:00:00 14.9 10 Norte 15 Nordeste 0 958.3 -- 88
2020-07-02 05:00:00 15.1 10 Norte 21 Nordeste 0 958.3 -- 92
2020-07-02 04:00:00 15.1 13 Nordeste 18 Nordeste 0 958.3 -- 91
2020-07-02 03:00:00 15.1 10 Norte 21 Nordeste 0 958.4 -- 91
2020-07-02 02:00:00 15.1 15 Nordeste 22 Nordeste 0 958.8 -- 91
2020-07-02 01:00:00 16.1 12 Nordeste 18 Norte 0 959 -- 89
2020-07-02 00:00:00 16.9 14 Norte 22 Norte 0 958.9 -- 85
2020-07-01 23:00:00 17.4 12 Nordeste 18 Norte 0 958.7 -- 89
2020-07-01 22:00:00 17.6 13 Norte 21 Norte 0 958 -- 88
2020-07-01 21:00:00 17.7 12 Norte 22 Norte 0 957.8 -- 89
2020-07-01 20:00:00 17.9 18 Norte 30 Norte 0 957.7 -- 91
2020-07-01 19:00:00 19 20 Norte 35 Nordeste 0 957.6 -- 82
2020-07-01 18:00:00 20.3 26 Norte 37 Norte 0 957.2 -- 75
2020-07-01 17:00:00 20.8 27 Nordeste 41 Nordeste 0 956.9 -- 72
2020-07-01 16:00:00 21.9 27 Nordeste 37 Nordeste 0 956.5 -- 68
2020-07-01 15:00:00 22.6 25 Nordeste 35 Nordeste 0 956.5 -- 68
2020-07-01 14:00:00 22.9 23 Nordeste 32 Nordeste 0 956.5 -- 68
2020-07-01 13:00:00 22 21 Nordeste 30 Nordeste 0 956.1 -- 70
2020-07-01 12:00:00 23 4 Sur 17 Nordeste 0 955.9 -- 60
2020-07-01 11:00:00 22.1 7 Nordeste 17 Sudeste 0 955.7 -- 60
2020-07-01 10:00:00 19.7 3 Este 8 Nordeste 0 955.8 -- 63
2020-07-01 09:00:00 17.2 4 Este 5 Sudeste 0 955.5 -- 76
2020-07-01 08:00:00 14.6 2 Este 9 Norte 0 955.1 -- 89
2020-07-01 07:00:00 13 6 Este 9 Este 0 954.8 -- 91
2020-07-01 06:00:00 12.9 4 Nordeste 8 Nordeste 0 954.5 -- 91
2020-07-01 05:00:00 13.1 7 Este 18 Noroeste 0 954.2 -- 93
2020-07-01 04:00:00 14.2 7 Nordeste 11 Este 0 954.4 -- 87
2020-07-01 03:00:00 15.4 6 Sur 11 Norte 0 954.6 -- 81
2020-07-01 02:00:00 16.9 12 Nordeste 26 Este 0 954.8 -- 78
2020-07-01 01:00:00 18.2 13 Noroeste 22 Noroeste 0 955.3 -- 71
2020-07-01 00:00:00 17.6 5 Sudeste 15 Norte 0 954.6 -- 82
2020-06-30 23:00:00 19.7 10 Oeste 28 Noroeste 0 954.7 -- 72
2020-06-30 22:00:00 21.7 12 Nordeste 22 Norte 0 953.3 -- 68
2020-06-30 21:00:00 24.9 8 Noroeste 28 Norte 0 954 -- 62
2020-06-30 20:00:00 26.4 21 Norte 30 Norte 0 953.3 -- 60
2020-06-30 19:00:00 27.7 19 Norte 32 Norte 0 953.6 -- 57
2020-06-30 18:00:00 28.9 20 Norte 33 Norte 0 953.6 -- 50
2020-06-30 17:00:00 29.3 14 Norte 30 Nordeste 0 954.3 -- 45
2020-06-30 16:00:00 29.6 13 Norte 24 Norte 0 954.6 -- 38
2020-06-30 15:00:00 28.9 5 Sur 15 Este 0 955.2 -- 36
2020-06-30 14:00:00 27.3 4 Este 13 Sudeste 0 955.8 -- 39
2020-06-30 13:00:00 25.4 4 Este 13 Sudoeste 0 956.4 -- 42
2020-06-30 12:00:00 22.6 4 Oeste 13 Sudoeste 0 957.1 -- 54
2020-06-30 11:00:00 20.6 4 Sudeste 11 Noroeste 0 957.6 -- 60
2020-06-30 10:00:00 17.8 3 Nordeste 8 Nordeste 0 958.2 -- 77
2020-06-30 09:00:00 16 4 Oeste 9 Norte 0 958.4 -- 85
2020-06-30 08:00:00 14 5 Norte 11 Norte 0 958.4 -- 93
2020-06-30 07:00:00 13.3 5 Noroeste 11 Oeste 0 958.5 -- 93
2020-06-30 06:00:00 14.1 4 Noroeste 9 Norte 0 958.3 -- 91
2020-06-30 05:00:00 14.8 2 Norte 11 Noroeste 0 958.7 -- 87
2020-06-30 04:00:00 15 4 Este 9 Este 0 959.2 -- 89
2020-06-30 03:00:00 15.4 0 Calma 8 Nordeste 0 959.7 -- 87
2020-06-30 02:00:00 15.5 4 Nordeste 13 Nordeste 0 960.5 -- 87
2020-06-30 01:00:00 15.4 7 Norte 13 Norte 0 960.7 -- 87
2020-06-30 00:00:00 15 6 Nordeste 13 Norte 0 960.5 -- 91
2020-06-29 23:00:00 15.9 9 Norte 18 Norte 0 960.6 -- 85
2020-06-29 22:00:00 16.7 14 Norte 21 Norte 0 960.2 -- 83
2020-06-29 21:00:00 17.1 14 Norte 24 Norte 0 960.4 -- 83
2020-06-29 20:00:00 17.6 16 Norte 26 Norte 0 960.4 -- 81
2020-06-29 19:00:00 18 17 Norte 26 Norte 0 960.5 -- 81
2020-06-29 18:00:00 19 15 Norte 24 Nordeste 0 960.8 -- 77
2020-06-29 17:00:00 18.5 18 Nordeste 32 Nordeste 0 961.1 -- 80
2020-06-29 16:00:00 19.4 19 Norte 30 Norte 0 961.1 -- 77
2020-06-29 15:00:00 19.3 18 Norte 30 Norte 0 961.5 -- 76
2020-06-29 14:00:00 21.1 16 Norte 30 Norte 0 961.8 -- 69
2020-06-29 13:00:00 20 17 Norte 28 Norte 0 961.9 -- 72
2020-06-29 12:00:00 19.5 15 Norte 24 Nordeste 0 962.1 -- 74
2020-06-29 11:00:00 17.6 17 Nordeste 22 Nordeste 0 962 -- 81
2020-06-29 10:00:00 17.2 17 Nordeste 26 Nordeste 0 962.2 -- 84
2020-06-29 09:00:00 16.4 14 Nordeste 18 Nordeste 0 962 -- 87
2020-06-29 08:00:00 16.1 12 Nordeste 15 Nordeste 0 961.7 -- 88
2020-06-29 07:00:00 15.8 12 Nordeste 24 Nordeste 0 961.5 -- 90
2020-06-29 06:00:00 16.2 13 Nordeste 21 Nordeste 0 961.2 -- 88
2020-06-29 05:00:00 17 11 Nordeste 17 Norte 0 961.1 -- 91
2020-06-29 04:00:00 17.2 8 Nordeste 13 Este 0 961.4 -- 90
2020-06-29 03:00:00 17.3 11 Norte 18 Nordeste 0 961.6 -- 89
2020-06-29 02:00:00 17.4 10 Nordeste 18 Nordeste 0 962 -- 89
2020-06-29 01:00:00 17.5 12 Nordeste 22 Nordeste 0 962.1 -- 88
2020-06-29 00:00:00 17.8 15 Nordeste 22 Nordeste 0 962.3 -- 86
2020-06-28 23:00:00 17.6 14 Nordeste 22 Nordeste 0 962 -- 86
2020-06-28 22:00:00 17.8 13 Nordeste 26 Norte 0 961.6 -- 85
2020-06-28 21:00:00 19.4 22 Norte 37 Norte 0 961.2 -- 77
2020-06-28 20:00:00 21.5 26 Norte 45 Norte 0 960.7 -- 68
2020-06-28 19:00:00 23.7 30 Norte 39 Norte 0 960.1 -- 60
2020-06-28 18:00:00 25 26 Norte 39 Nordeste 0 960 -- 58
2020-06-28 17:00:00 25.6 26 Norte 35 Nordeste 0 959.9 -- 57
2020-06-28 16:00:00 26.5 23 Nordeste 35 Nordeste 0 960 -0.7 56
2020-06-28 15:00:00 26.9 13 Nordeste 26 Norte 0 959.9 -- 49
2020-06-28 14:00:00 25.4 9 Este 32 Norte 0 960.2 -- 53
2020-06-28 13:00:00 24.2 8 Este 18 Nordeste 0 960.7 -- 59
2020-06-28 12:00:00 22 6 Norte 17 Noroeste 0 961.2 -- 66
2020-06-28 11:00:00 19.8 6 Norte 13 Norte 0 961.2 -- 77
2020-06-28 10:00:00 18.7 4 Nordeste 13 Norte 0 961.1 -- 81
2020-06-28 09:00:00 17 11 Norte 17 Norte 0 961.1 -- 90
2020-06-28 08:00:00 16.5 12 Norte 17 Norte 0 960.7 -- 91
2020-06-28 07:00:00 16.3 9 Nordeste 18 Norte 0 960.2 -- 93
2020-06-28 06:00:00 16.4 10 Nordeste 18 Norte 0 960.2 -- 93
2020-06-28 05:00:00 16.1 10 Norte 15 Norte 0 960.2 -- 94
2020-06-28 04:00:00 15.5 5 Norte 9 Norte 0 960.3 -- 94
2020-06-28 03:00:00 16.1 0 Calma 11 Noroeste 0 960.3 -- 90
2020-06-28 02:00:00 16 4 Noroeste 9 Noroeste 0 960.6 -- 92
2020-06-28 01:00:00 15.9 2 Nordeste 11 Noroeste 0 960.6 -- 90
2020-06-28 00:00:00 17.3 6 Oeste 17 Norte 0 960.3 -- 83
2020-06-27 23:00:00 19.1 8 Norte 18 Norte 0 959.8 -- 73
2020-06-27 22:00:00 20.5 13 Norte 26 Norte 0 958.8 -- 67
2020-06-27 21:00:00 22.9 20 Norte 30 Norte 0 958 -- 61
2020-06-27 20:00:00 23.6 17 Nordeste 28 Norte 0 957.7 -- 63
2020-06-27 19:00:00 25.6 19 Nordeste 28 Nordeste 0 957.4 -- 57
2020-06-27 18:00:00 24.9 18 Nordeste 30 Nordeste 0 957.6 -- 58
2020-06-27 17:00:00 26.2 18 Nordeste 28 Nordeste 0 957.5 -- 53
2020-06-27 16:00:00 27.4 13 Oeste 24 Oeste 0 957.6 -- 46
2020-06-27 15:00:00 27.3 10 Oeste 24 Oeste 0 957.7 -- 45
2020-06-27 14:00:00 25.3 12 Noroeste 24 Oeste 0 957.9 -- 52
2020-06-27 13:00:00 24.7 8 Oeste 33 Sudoeste 0 958 -- 54
2020-06-27 12:00:00 24 21 Sudoeste 32 Sudoeste 0 958 -- 58
2020-06-27 11:00:00 21.9 18 Sudoeste 26 Sur 0 957.9 -- 64
2020-06-27 10:00:00 19.1 10 Sudoeste 17 Sudoeste 0 957.8 -- 76
2020-06-27 09:00:00 15.4 4 Sudoeste 9 Sudoeste 0 957.6 -- 96
2020-06-27 08:00:00 14.5 6 Sudoeste 11 Oeste 0 957.4 -- 97
2020-06-27 07:00:00 12.9 8 Sudoeste 9 Sudoeste 0 957.3 -- 98
2020-06-27 06:00:00 13.6 5 Oeste 8 Sudoeste 0 957.3 -- 97
2020-06-27 05:00:00 13.7 3 Sudoeste 5 Sudoeste 0 957.2 -- 97
2020-06-27 04:00:00 13.7 3 Sudeste 5 Este 0 957 -- 98
2020-06-27 03:00:00 12.7 3 Sudoeste 11 Nordeste 0 957 -- 97
2020-06-27 02:00:00 13 6 Nordeste 11 Nordeste 0 956.9 -- 96
2020-06-27 01:00:00 14.6 0 Calma 9 Nordeste 0 956.9 -- 94
2020-06-27 00:00:00 15.3 3 Nordeste 11 Oeste 0 956.8 -- 93
2020-06-26 23:00:00 16.3 6 Sur 17 Oeste 0 956.8 -- 91
2020-06-26 22:00:00 16.4 13 Oeste 21 Oeste 0 956.6 -- 90
2020-06-26 21:00:00 17.1 9 Noroeste 24 Norte 0 956.1 -- 88
2020-06-26 20:00:00 18 15 Noroeste 26 Norte 0 955.5 -- 87
2020-06-26 19:00:00 20.9 17 Nordeste 30 Nordeste 0 954.8 -- 77
2020-06-26 18:00:00 20.1 19 Nordeste 42 Oeste 0 955.1 -- 79
2020-06-26 17:00:00 20.3 14 Noroeste 35 Nordeste 0 955.2 -- 79
2020-06-26 16:00:00 23.4 17 Nordeste 28 Nordeste 0 954.6 -- 70
2020-06-26 15:00:00 24.5 16 Norte 28 Nordeste 0 955.1 -- 67
2020-06-26 14:00:00 23 16 Nordeste 30 Norte 0 955.4 -- 71
2020-06-26 13:00:00 21.2 17 Nordeste 30 Norte 0 955.9 -- 76
2020-06-26 12:00:00 21.2 19 Norte 28 Nordeste 0 955.9 -- 74
2020-06-26 11:00:00 21.2 17 Nordeste 24 Norte 0 955.9 -- 75
2020-06-26 10:00:00 19.3 14 Norte 21 Norte 0 956.1 -- 80
2020-06-26 09:00:00 17.3 0 Calma 5 Sudoeste 0 956.1 -- 91
2020-06-26 08:00:00 14.7 2 Sudoeste 8 Oeste 0 955.8 -- 97
2020-06-26 07:00:00 12.9 3 Este 8 Nordeste 0 955.7 -- 97
2020-06-26 06:00:00 13.7 0 Calma 9 Nordeste 0 956.1 -- 95
2020-06-26 05:00:00 15.2 6 Norte 13 Noroeste 0 956.6 -- 96
2020-06-26 04:00:00 15.2 7 Norte 21 Norte 0 957 -- 97
2020-06-26 03:00:00 14.1 10 Nordeste 17 Norte 0 957.2 -- 98
2020-06-26 02:00:00 14.6 7 Nordeste 22 Norte 0 957.4 -- 97
2020-06-26 01:00:00 15.1 13 Nordeste 21 Norte 0 957.4 -- 98
2020-06-26 00:00:00 15.9 4 Sur 11 Norte 0 957.4 -- 94
2020-06-25 23:00:00 16.4 5 Norte 17 Nordeste 0 957.4 -- 95
2020-06-25 22:00:00 18.3 13 Nordeste 21 Norte 0 957 -- 93
2020-06-25 21:00:00 19.1 13 Norte 21 Este 0 956.9 -- 81
2020-06-25 20:00:00 20.2 5 Sudeste 28 Sudoeste 0.1 957.4 -- 92
2020-06-25 19:00:00 21.2 10 Oeste 15 Sudoeste 0 957.2 -- 84
2020-06-25 18:00:00 22 5 Norte 17 Este 0.2 956.4 -- 81
2020-06-25 17:00:00 21.8 9 Este 24 Nordeste 0 956.9 -- 82
2020-06-25 16:00:00 22.9 16 Noroeste 37 Oeste 0 956.6 -- 78
2020-06-25 15:00:00 24.4 8 Norte 18 Sudeste 0 956.8 -- 67
2020-06-25 14:00:00 24.6 16 Sudeste 28 Sudeste 0 957.1 -- 64
2020-06-25 13:00:00 24.8 15 Sudoeste 24 Sudoeste 0 958.4 -- 64
2020-06-25 12:00:00 26.8 6 Sur 15 Norte 0 957.9 -- 52
2020-06-25 11:00:00 25.5 9 Norte 15 Nordeste 0 957.5 -- 57
2020-06-25 10:00:00 24.6 9 Sur 17 Sudeste 0 957.3 -- 57
2020-06-25 09:00:00 22 11 Sudeste 15 Sudeste 0 957.4 -- 70
2020-06-25 08:00:00 16.9 8 Sur 18 Oeste 0 957.8 -- 94
2020-06-25 07:00:00 15.2 6 Nordeste 9 Nordeste 0 957.2 -- 95
2020-06-25 06:00:00 16.2 5 Oeste 11 Noroeste 0 957.2 -- 95
2020-06-25 05:00:00 17.2 8 Noroeste 18 Nordeste 0 957.4 -- 94
2020-06-25 04:00:00 15.8 10 Nordeste 13 Este 0 958.2 -- 95
2020-06-25 03:00:00 16.1 5 Este 11 Sudoeste 0 958.6 -- 94
2020-06-25 02:00:00 16.8 6 Sur 17 Sur 0 959 -- 92
2020-06-25 01:00:00 18.2 4 Oeste 11 Oeste 0 959.3 -- 91
2020-06-25 00:00:00 18.7 6 Sudeste 18 Este 0 960.1 -- 91
2020-06-24 23:00:00 19.6 14 Nordeste 46 Noroeste 0 959.5 -- 85
2020-06-24 22:00:00 21.3 7 Norte 15 Noroeste 0 957.9 -- 78
2020-06-24 21:00:00 25.5 6 Este 24 Este 0 956.8 -- 54
2020-06-24 20:00:00 28.1 4 Sudoeste 35 Noroeste 0 956.2 -- 43
2020-06-24 19:00:00 30.5 24 Oeste 35 Oeste 0 955.9 -- 36
2020-06-24 18:00:00 33.6 4 Este 17 Sur 0 955.6 -- 30
2020-06-24 17:00:00 32.9 9 Sur 22 Este 0 955.8 -- 34
2020-06-24 16:00:00 31.2 6 Sur 21 Sur 0 956.7 -- 41
2020-06-24 15:00:00 28.9 5 Noroeste 11 Oeste 0 956.9 -- 54
2020-06-24 14:00:00 28.4 8 Sudoeste 17 Sudoeste 0 957.3 -- 54
2020-06-24 13:00:00 28.7 11 Sur 37 Sudoeste 0 957.3 -- 53
2020-06-24 12:00:00 28.8 4 Sur 13 Oeste 0 957.4 -- 53
2020-06-24 11:00:00 26.4 9 Noroeste 18 Oeste 0 957.3 -- 60
2020-06-24 10:00:00 24.6 10 Sudoeste 17 Oeste 0 957.8 -- 63
2020-06-24 09:00:00 21.4 4 Sudoeste 11 Este 0 957.6 -- 79
2020-06-24 08:00:00 18 6 Nordeste 9 Norte 0 957.4 -- 88
2020-06-24 07:00:00 15.1 6 Sur 11 Sudoeste 0 957.3 -- 95
2020-06-24 06:00:00 14.8 9 Nordeste 13 Este 0 957.2 -- 97
2020-06-24 05:00:00 15.8 5 Nordeste 13 Oeste 0 957 -- 93
2020-06-24 04:00:00 16.9 5 Sudeste 11 Norte 0 957 -- 94
2020-06-24 03:00:00 17.8 6 Sur 9 Oeste 0 957.1 -- 91
2020-06-24 02:00:00 18.5 3 Este 11 Nordeste 0 957 -- 92
2020-06-24 01:00:00 18.3 10 Nordeste 13 Nordeste 0 956.8 -- 93
2020-06-24 00:00:00 19.4 4 Nordeste 8 Nordeste 0 957.3 -- 89
2020-06-23 23:00:00 21.2 4 Nordeste 11 Nordeste 0 957.4 -- 83
2020-06-23 22:00:00 24.7 9 Nordeste 18 Norte 0 956.4 -- 72
2020-06-23 21:00:00 28.6 14 Norte 22 Nordeste 0 955.9 -- 59
2020-06-23 20:00:00 31.5 16 Nordeste 21 Nordeste 0 955.7 -- 37
2020-06-23 19:00:00 32.9 8 Nordeste 22 Nordeste 0 955.7 -- 32
2020-06-23 18:00:00 33.3 6 Este 13 Nordeste 0 955.9 -- 30
2020-06-23 17:00:00 33.1 3 Sudeste 17 Este 0 956.3 -- 30
2020-06-23 16:00:00 32.4 5 Norte 15 Norte 0 956.9 -- 32
2020-06-23 15:00:00 31.1 8 Oeste 15 Este 0 957.5 -- 40
2020-06-23 14:00:00 28.9 4 Norte 13 Sudoeste 0 958.1 -- 48
2020-06-23 13:00:00 26.9 4 Sudoeste 13 Sudoeste 0 958.8 -- 52
2020-06-23 12:00:00 24.6 4 Oeste 9 Noroeste 0 959.1 -- 59
2020-06-23 11:00:00 21.5 3 Sur 11 Sur 0 959.6 -- 65
2020-06-23 10:00:00 18.3 2 Sudoeste 8 Sudoeste 0 960.3 -- 81
2020-06-23 09:00:00 15.4 2 Este 4 Sur 0 960.6 -- 86
2020-06-23 08:00:00 11.4 4 Oeste 9 Nordeste 0 960.7 -- 97
2020-06-23 07:00:00 8.4 8 Nordeste 11 Nordeste 0 960.6 -- 97
2020-06-23 06:00:00 9.4 5 Oeste 11 Noroeste 0 960.6 -- 97
2020-06-23 05:00:00 9.7 7 Nordeste 9 Nordeste 0 960.8 -- 97
2020-06-23 04:00:00 10.4 4 Nordeste 5 Este 0 961.2 -- 96
2020-06-23 03:00:00 11.6 3 Oeste 9 Noroeste 0 961.9 -- 96
2020-06-23 02:00:00 12.6 4 Noroeste 9 Nordeste 0 962.4 -- 91
2020-06-23 01:00:00 13.8 7 Este 13 Nordeste 0 962.6 -- 91
2020-06-23 00:00:00 14.8 6 Este 11 Este 0 962.6 -- 86
2020-06-22 23:00:00 16.2 2 Sur 17 Nordeste 0 962.5 -- 81
2020-06-22 22:00:00 19.8 12 Nordeste 24 Nordeste 0 962.2 -- 67
2020-06-22 21:00:00 22.9 19 Norte 26 Nordeste 0 962 -- 60
2020-06-22 20:00:00 24.7 19 Nordeste 30 Nordeste 0 961.9 -- 56
2020-06-22 19:00:00 25.9 21 Nordeste 30 Nordeste 0 962.1 -- 53
2020-06-22 18:00:00 26.6 18 Nordeste 30 Nordeste 0 962.4 -- 49
2020-06-22 17:00:00 26.6 19 Nordeste 28 Nordeste 0 963 -- 49
2020-06-22 16:00:00 25.9 13 Nordeste 26 Nordeste 0 964 -- 50
2020-06-22 15:00:00 24.8 14 Nordeste 24 Nordeste 0 964.8 -- 52
2020-06-22 14:00:00 23.8 12 Nordeste 26 Norte 0 965.4 -- 52
2020-06-22 13:00:00 22.3 10 Nordeste 21 Nordeste 0 966 -- 58
2020-06-22 12:00:00 20.8 8 Nordeste 17 Nordeste 0 966.4 -- 65
2020-06-22 11:00:00 19.7 9 Nordeste 17 Nordeste 0 966.7 -- 68
2020-06-22 10:00:00 17.7 5 Nordeste 13 Nordeste 0 967.2 -- 78
2020-06-22 09:00:00 16.6 10 Nordeste 17 Nordeste 0 967.4 -- 85
2020-06-22 08:00:00 14.3 4 Nordeste 8 Este 0 967.3 -- 96
2020-06-22 07:00:00 13.9 6 Noroeste 9 Noroeste 0 967.1 -- 93
2020-06-22 06:00:00 15 5 Oeste 9 Oeste 0 967.2 -- 91
2020-06-22 05:00:00 15.6 0 Calma 5 Este 0 967.6 -- 89
2020-06-22 04:00:00 15.7 6 Este 11 Nordeste 0 968.1 -- 90
2020-06-22 03:00:00 15.9 8 Nordeste 13 Nordeste 0 968.5 -- 88
2020-06-22 02:00:00 15.9 8 Nordeste 15 Nordeste 0 968.8 -- 89
2020-06-22 01:00:00 16.6 12 Norte 17 Norte 0 969.2 -- 84
2020-06-22 00:00:00 16.8 8 Norte 13 Norte 0 969.1 -- 80
2020-06-21 23:00:00 16.7 8 Norte 17 Norte 0 968.7 -- 81
2020-06-21 22:00:00 17.1 13 Norte 32 Norte 0 968.2 -- 77
2020-06-21 21:00:00 19.1 21 Norte 35 Norte 0 967.7 -- 68
2020-06-21 20:00:00 20.4 26 Norte 39 Norte 0 967 -- 62
2020-06-21 19:00:00 21.8 26 Nordeste 41 Norte 0 966.5 -- 57
2020-06-21 18:00:00 23.5 28 Norte 41 Norte 0 966.2 -- 51
2020-06-21 17:00:00 24.8 26 Nordeste 35 Nordeste 0 965.9 -- 51
2020-06-21 16:00:00 25.2 20 Nordeste 33 Norte 0 965.7 -- 53
2020-06-21 15:00:00 25 18 Nordeste 30 Este 0 965.6 -- 55
2020-06-21 14:00:00 25 17 Nordeste 28 Norte 0 965.7 -- 53
2020-06-21 13:00:00 24.5 14 Nordeste 24 Nordeste 0 965.8 -- 54
2020-06-21 12:00:00 23.2 5 Sudeste 17 Este 0 965.7 -- 53
2020-06-21 11:00:00 20.6 3 Sudoeste 8 Sur 0 965.7 -- 63
2020-06-21 10:00:00 17.6 2 Sur 5 Sur 0 965.9 -- 74
2020-06-21 09:00:00 14.3 0 Calma 4 Norte 0 965.7 -- 87
2020-06-21 08:00:00 11.3 2 Sudeste -- -- 0 965.5 -- 94
2020-06-21 07:00:00 8.4 3 Noroeste -- -- 0 965 -- 98
2020-06-21 06:00:00 8.6 3 Este 5 Este 0 964.7 -- 97
2020-06-21 05:00:00 9.3 4 Nordeste 5 Nordeste 0 964.5 -- 96
2020-06-21 04:00:00 9.6 0 Calma 5 Norte 0 964.6 -- 96
2020-06-21 03:00:00 10.1 3 Norte 9 Nordeste 0 964.8 -- 95
2020-06-21 02:00:00 -- -- -- -- -- 0 965.1 -- --
2020-06-21 01:00:00 11.7 4 Este 8 Este 0 965 -- 92
2020-06-21 00:00:00 13.3 4 Este 8 Sur 0 965.1 -- 90
2020-06-20 23:00:00 15.3 3 Sudeste 11 Oeste 0 964.5 -- 81
2020-06-20 22:00:00 18.3 6 Noroeste 17 Norte 0 963.8 -- 72
2020-06-20 21:00:00 21.1 15 Norte 28 Norte 0 963.1 -- 68
2020-06-20 20:00:00 22.5 20 Norte 32 Norte 0 962.7 -- 66
2020-06-20 19:00:00 23.7 22 Norte 33 Nordeste 0 962.2 -- 63
2020-06-20 18:00:00 25.2 21 Norte 28 Norte 0 962.1 -- 55
2020-06-20 17:00:00 25.7 14 Norte 26 Norte 0 962.2 -- 51
2020-06-20 16:00:00 25.5 12 Norte 22 Este 0 962.4 -- 48
2020-06-20 15:00:00 24.8 9 Norte 22 Nordeste 0 962.6 -- 46
2020-06-20 14:00:00 23.5 5 Norte 13 Norte 0 963 -- 47
2020-06-20 13:00:00 21.8 6 Este 13 Nordeste 0 963.4 -- 51
2020-06-20 12:00:00 19.8 4 Este 15 Nordeste 0 963.6 -- 61
2020-06-20 11:00:00 16.9 6 Este 13 Este 0 963.9 -- 76
2020-06-20 10:00:00 12.6 6 Nordeste 11 Nordeste 0 964.1 -- 99
2020-06-20 09:00:00 11.2 3 Nordeste 8 Nordeste 0 963.9 -- 99
2020-06-20 08:00:00 9.2 0 Calma 8 Norte 0 963.7 -- 99
2020-06-20 07:00:00 7 0 Calma 4 Nordeste 0 963.4 -- 97
2020-06-20 06:00:00 7.8 2 Norte 4 Nordeste 0 963.3 -- 98
2020-06-20 05:00:00 8.1 -- -- -- -- 0 963.4 -- 98
2020-06-20 04:00:00 8.7 -- -- -- -- 0 963.3 -- 97
2020-06-20 03:00:00 9.8 0 Calma 5 Oeste 0 963.3 -- 97
2020-06-20 02:00:00 10.2 5 Sudeste 8 Sudeste 0 963.6 -- 94
2020-06-20 01:00:00 11.5 5 Nordeste 9 Oeste 0 963.8 -- 95
2020-06-20 00:00:00 13.1 6 Norte 21 Norte 0 963.8 -- 90
2020-06-19 23:00:00 15.3 10 Norte 22 Norte 0 963.5 -- 81
2020-06-19 22:00:00 15.7 18 Norte 26 Norte 0 962.6 -- 79
2020-06-19 21:00:00 16 18 Norte 30 Norte 0 961.6 -- 80
2020-06-19 20:00:00 18.5 21 Norte 33 Norte 0 961 -- 71
2020-06-19 19:00:00 20.1 24 Norte 35 Nordeste 0 960.4 -- 66
2020-06-19 18:00:00 20.9 25 Norte 33 Norte 0 960.2 -- 65
2020-06-19 17:00:00 21.4 22 Norte 32 Nordeste 0 960.1 -- 64
2020-06-19 16:00:00 22.1 18 Nordeste 32 Norte 0 959.9 -- 61
2020-06-19 15:00:00 22.1 19 Nordeste 32 Nordeste 0 959.9 -- 60
2020-06-19 14:00:00 21.8 12 Nordeste 22 Norte 0 959.9 -- 57
2020-06-19 13:00:00 20.8 8 Nordeste 22 Este 0 960.1 -- 54
2020-06-19 12:00:00 19.6 8 Norte 18 Nordeste 0 960 -- 60
2020-06-19 11:00:00 17.8 6 Nordeste 13 Nordeste 0 959.8 -- 67
2020-06-19 10:00:00 15.5 6 Este 11 Este 0 960.1 -- 74
2020-06-19 09:00:00 13.3 0 Calma 5 Este 0 960.3 -- 82
2020-06-19 08:00:00 10.6 2 Este 5 Este 0 960.1 -- 93
2020-06-19 07:00:00 7.4 4 Este 8 Este 0 960 -- 96
2020-06-19 06:00:00 8.2 4 Nordeste 5 Nordeste 0 959.4 -- 95
2020-06-19 05:00:00 10.1 -- -- -- -- 0 959.2 -- 96
2020-06-19 04:00:00 10 0 Calma 4 Oeste 0 959.6 -- 97
2020-06-19 03:00:00 9.4 5 Norte 8 Norte 0 959.6 -- 95
2020-06-19 02:00:00 11.1 6 Nordeste 8 Nordeste 0 960 -- 93
2020-06-19 01:00:00 11.9 5 Este -- -- 0 960 -- 90
2020-06-19 00:00:00 12.6 7 Norte 13 Norte 0 960.1 -- 84
2020-06-18 23:00:00 12.3 9 Nordeste 17 Norte 0 959.9 -- 88
2020-06-18 22:00:00 13.3 12 Norte 26 Norte 0 959 -- 83
2020-06-18 21:00:00 14.9 21 Norte 32 Norte 0 958.5 -- 78
2020-06-18 20:00:00 16.4 24 Nordeste 33 Nordeste 0 957.6 -- 73
2020-06-18 19:00:00 16.7 23 Norte 32 Norte 0 957.3 -- 71
2020-06-18 18:00:00 18.8 20 Nordeste 28 Nordeste 0 957.1 -- 65
2020-06-18 17:00:00 20.1 17 Norte 28 Norte 0 957.1 -- 61
2020-06-18 16:00:00 19.8 14 Norte 32 Nordeste 0 957.2 -- 60
2020-06-18 15:00:00 19.6 9 Norte 24 Norte 0 957.4 -- 60
2020-06-18 14:00:00 18.3 11 Norte 17 Noroeste 0 957.7 -- 65
2020-06-18 13:00:00 16.9 6 Nordeste 17 Nordeste 0 957.9 -- 69
2020-06-18 12:00:00 16.3 9 Nordeste 15 Nordeste 0 957.8 -- 73
2020-06-18 11:00:00 14.2 0 Calma 5 Sur 0 957.9 -- 78
2020-06-18 10:00:00 14.1 4 Este 9 Este 0 957.7 -- 81
2020-06-18 09:00:00 12.5 3 Norte 9 Noroeste 0 957.3 -- 90
2020-06-18 08:00:00 11.4 6 Noroeste 9 Noroeste 0 957.3 -- 97
2020-06-18 07:00:00 11.2 2 Este 8 Este 0 957.2 -- 98
2020-06-18 06:00:00 11.1 0 Calma 11 Nordeste 0.7 957.3 -- 98
2020-06-18 05:00:00 11.1 5 Sudeste 9 Sudeste 3.4 957.2 -- 98
2020-06-18 04:00:00 11.2 0 Calma 9 Nordeste 0.2 957.6 -- 96
2020-06-18 03:00:00 11.3 3 Nordeste 9 Norte 0 957.7 -- 95
2020-06-18 02:00:00 10.9 8 Este 9 Este 0 958 -- 96
2020-06-18 01:00:00 11.7 5 Noroeste 13 Norte 0 958.6 -- 93
2020-06-18 00:00:00 11.5 -- -- -- -- 0 958.8 -- 95
2020-06-17 23:00:00 11.7 7 Norte 13 Nordeste 0 959.1 -- 91
2020-06-17 22:00:00 12.6 10 Nordeste 26 Nordeste 0 958.5 -- 87
2020-06-17 21:00:00 13.4 15 Nordeste 26 Nordeste 0 958.2 -- 84
2020-06-17 20:00:00 14.1 15 Nordeste 32 Nordeste 0 958.1 -- 84
2020-06-17 19:00:00 14.9 21 Nordeste 32 Norte 0.2 958.2 -- 82
2020-06-17 18:00:00 15 15 Norte 33 Nordeste 0 958.3 -- 78
2020-06-17 17:00:00 16.2 14 Nordeste 21 Nordeste 0.2 958.3 -- 79
2020-06-17 16:00:00 14 3 Oeste 28 Noroeste 3.3 958.8 -- 83
2020-06-17 15:00:00 17.4 8 Este 17 Este 2 958.2 -- 67
2020-06-17 14:00:00 17.7 5 Sudeste 11 Oeste 0 958.5 -- 58
2020-06-17 13:00:00 16.9 3 Norte 18 Oeste 0 959 -- 62
2020-06-17 12:00:00 16.8 5 Noroeste 21 Noroeste 0 959.1 -- 62
2020-06-17 11:00:00 16.6 6 Norte 13 Norte 0 959 -- 69
2020-06-17 10:00:00 14.5 3 Sudoeste 9 Sudoeste 0 959.2 -- 76
2020-06-17 09:00:00 12.7 4 Noroeste 8 Norte 0 959.3 -- 90
2020-06-17 08:00:00 10.6 3 Este 5 Este 0 959.2 -- 97
2020-06-17 07:00:00 10.3 4 Sur 5 Sur 0 958.8 -- 97
2020-06-17 06:00:00 10.4 3 Noroeste 5 Norte 0 958.7 -- 95
2020-06-17 05:00:00 10.8 3 Oeste 11 Noroeste 0 958.9 -- 94
2020-06-17 04:00:00 10.7 6 Oeste 8 Oeste 0 959.3 -- 94
2020-06-17 03:00:00 11.9 -- -- -- -- 0 959.9 -- 89
2020-06-17 02:00:00 12.2 2 Norte 13 Norte 0 960.4 -- 85
2020-06-17 01:00:00 12.5 8 Norte 15 Norte 0 960.8 -- 83
2020-06-17 00:00:00 12.6 6 Norte 21 Norte 0 961.1 -- 83
2020-06-16 23:00:00 12.9 5 Este 13 Norte 0 961 -- 80
2020-06-16 22:00:00 13.1 9 Norte 22 Norte 0 960.6 -- 82
2020-06-16 21:00:00 13.5 5 Norte 24 Noroeste 0 960.5 -- 80
2020-06-16 20:00:00 14.2 18 Norte 32 Norte 0 959.8 -- 79
2020-06-16 19:00:00 13.9 16 Norte 28 Norte 0 959.8 -- 87
2020-06-16 18:00:00 14.1 17 Norte 30 Norte 0.9 959.8 -- 95
2020-06-16 17:00:00 14.7 18 Norte 26 Norte 0.9 959.3 -- 92
2020-06-16 16:00:00 14 18 Norte 30 Norte 0.3 959.4 -- 91
2020-06-16 15:00:00 14.1 21 Nordeste 35 Norte 5.6 959.3 -- 94
2020-06-16 14:00:00 16.1 23 Norte 41 Norte 0 959.2 -- 76
2020-06-16 13:00:00 20 12 Sur 18 Sur 0 959 -- 57
2020-06-16 12:00:00 18.8 2 Sur 11 Sudoeste 0 959.5 -- 59
2020-06-16 11:00:00 17 4 Este 13 Este 0 960.2 -- 70
2020-06-16 10:00:00 15.1 5 Nordeste 9 Nordeste 0 960.8 -- 77
2020-06-16 09:00:00 12.6 3 Sur 5 Sur 0 961 -- 91
2020-06-16 08:00:00 10.7 0 Calma -- -- 0 961 -- 96
2020-06-16 07:00:00 10.3 9 Norte 13 Nordeste 0 960.8 -- 95
2020-06-16 06:00:00 11.9 0 Calma 8 Sudoeste 0 960.8 -- 91
2020-06-16 05:00:00 12.4 4 Nordeste 11 Norte 0 961 -- 92
2020-06-16 04:00:00 12.8 9 Norte 15 Norte 0 961.4 -- 86
2020-06-16 03:00:00 12.8 3 Nordeste 11 Nordeste 0 961.9 -- 88
2020-06-16 02:00:00 13 8 Norte 15 Norte 0 962.2 -- 84
2020-06-16 01:00:00 13.2 9 Norte 17 Norte 0 962.8 -- 84
2020-06-16 00:00:00 13.5 8 Norte 22 Norte 0 963.3 -- 82
2020-06-15 23:00:00 13.9 15 Norte 24 Norte 0 963.2 -- 78
2020-06-15 22:00:00 14.4 15 Norte 33 Norte 0 962.8 -- 77
2020-06-15 21:00:00 15 23 Norte 35 Norte 0 962 -- 74
2020-06-15 20:00:00 17 23 Norte 37 Norte 0 961.8 -- 70
2020-06-15 19:00:00 18.8 23 Norte 32 Norte 0 961.8 -- 64
2020-06-15 18:00:00 20.2 21 Nordeste 32 Nordeste 0 962 -- 59
2020-06-15 17:00:00 20.7 17 Nordeste 28 Norte 0 962 -- 58
2020-06-15 16:00:00 20.2 15 Norte 24 Norte 0 962.3 -- 62
2020-06-15 15:00:00 19.3 11 Norte 22 Norte 0 962.5 -- 63
2020-06-15 14:00:00 19.2 14 Norte 24 Norte 0 962.8 -- 65
2020-06-15 13:00:00 17.8 11 Norte 17 Norte 0 962.8 -- 64
2020-06-15 12:00:00 18.6 4 Sudeste 13 Nordeste 0 962.8 -- 61
2020-06-15 11:00:00 17.7 3 Norte 11 Nordeste 0 962.8 -- 66
2020-06-15 10:00:00 15.7 5 Sudeste 9 Sudeste 0 963 -- 73
2020-06-15 09:00:00 14.1 2 Nordeste 8 Nordeste 0 963 -- 78
2020-06-15 08:00:00 12.1 0 Calma 4 Sur 0 962.8 -- 91
2020-06-15 07:00:00 11.6 0 Calma 4 Sudoeste 0 962.3 -- 93
2020-06-15 06:00:00 11.8 3 Sudoeste 9 Norte 0 962.3 -- 91
2020-06-15 05:00:00 12 3 Norte 8 Nordeste 0 962.3 -- 89
2020-06-15 04:00:00 12.3 5 Norte 11 Norte 0 962.5 -- 86
2020-06-15 03:00:00 12.3 6 Norte 9 Norte 0 962.8 -- 86
2020-06-15 02:00:00 12.3 8 Norte 13 Norte 0 962.9 -- 86
2020-06-15 01:00:00 12.4 8 Norte 13 Norte 0 963.2 -- 82
2020-06-15 00:00:00 12.6 6 Norte 13 Norte 0 963.1 -- 80
2020-06-14 23:00:00 13.3 9 Norte 26 Norte 0 963 -- 75
2020-06-14 22:00:00 14.1 18 Norte 30 Norte 0 962.4 -- 70
2020-06-14 21:00:00 15.3 21 Norte 33 Norte 0 961.9 -- 65
2020-06-14 20:00:00 16.9 21 Norte 30 Norte 0 961.3 -- 66
2020-06-14 19:00:00 17.1 16 Norte 33 Norte 0 960.8 -- 64
2020-06-14 18:00:00 18.2 23 Norte 32 Nordeste 0 960.3 -- 62
2020-06-14 17:00:00 19.7 18 Norte 26 Norte 0 960.1 -- 55
2020-06-14 16:00:00 21.1 15 Oeste 35 Sudoeste 0 960 -- 42
2020-06-14 15:00:00 21.5 23 Sudoeste 37 Sudoeste 0 960 -- 45
2020-06-14 14:00:00 21.7 21 Oeste 41 Oeste 0 960.3 -- 46
2020-06-14 13:00:00 19.7 17 Sudoeste 32 Sudoeste 0 960.4 -- 51
2020-06-14 12:00:00 19.2 13 Sudoeste 28 Sudoeste 0 960.4 -- 56
2020-06-14 11:00:00 17.5 11 Sudoeste 21 Sur 0 960.5 -- 69
2020-06-14 10:00:00 15.2 2 Oeste 9 Oeste 0 960.6 -- 78
2020-06-14 09:00:00 13.3 4 Sudoeste 5 Oeste 0 960.1 -- 89
2020-06-14 08:00:00 10.9 4 Nordeste 9 Norte 0 960 -- 97
2020-06-14 07:00:00 9.5 7 Nordeste 9 Nordeste 0 959.9 -- 94
2020-06-14 06:00:00 10.7 0 Calma 8 Nordeste 0 959.7 -- 92
2020-06-14 05:00:00 11.8 5 Nordeste 15 Norte 0 959.6 -- 90
2020-06-14 04:00:00 11.7 6 Norte 11 Norte 0 959.6 -- 88
2020-06-14 03:00:00 12.3 4 Norte 11 Nordeste 0 959.7 -- 91
2020-06-14 02:00:00 12.2 2 Este 9 Norte 0 959.7 -- 92
2020-06-14 01:00:00 11.6 0 Calma 5 Noroeste 0 959.6 -- 95
2020-06-14 00:00:00 11 0 Calma 9 Oeste 0 959.5 -- 96
2020-06-13 23:00:00 11.2 0 Calma 11 Norte 0 959.1 -- 94
2020-06-13 22:00:00 12.5 9 Nordeste 18 Norte 0 958.2 -- 87
2020-06-13 21:00:00 13.8 14 Norte 18 Norte 0 958.2 -- 88
2020-06-13 20:00:00 15.7 15 Norte 21 Norte 0 957.1 -- 79
2020-06-13 19:00:00 16.4 14 Norte 32 Norte 0 956.6 -- 76
2020-06-13 18:00:00 18.7 14 Nordeste 24 Norte 0 955.7 -- 63
2020-06-13 17:00:00 22 7 Oeste 18 Sudoeste 0 955.5 -- 45
2020-06-13 16:00:00 18.7 17 Oeste 39 Oeste 0 955.7 -- 56
2020-06-13 15:00:00 18.4 16 Sudoeste 28 Sudoeste 0 955.4 -- 55
2020-06-13 14:00:00 18.7 15 Sudoeste 30 Sudoeste 0 955.2 -- 57
2020-06-13 13:00:00 17.9 16 Sur 35 Sudoeste 0 955 -- 58
2020-06-13 12:00:00 16.6 21 Sur 32 Sudoeste 0 954.8 -- 65
2020-06-13 11:00:00 16.1 18 Sudoeste 30 Sudoeste 0 954.4 -- 66
2020-06-13 10:00:00 13.3 17 Sudoeste 30 Sudoeste 0 954 -- 76
2020-06-13 09:00:00 12.7 17 Sudoeste 33 Sudoeste 0 953.5 -- 78
2020-06-13 08:00:00 11.6 11 Sudoeste 22 Sudoeste 0 952.4 -- 84
2020-06-13 07:00:00 10.8 14 Sudoeste 21 Sudoeste 0 951.7 -- 88
2020-06-13 06:00:00 10.6 12 Sudoeste 17 Sudoeste 0 951 -- 91
2020-06-13 05:00:00 10.6 4 Sur 9 Norte 0 950.5 -- 91
2020-06-13 04:00:00 10.2 6 Nordeste 17 Sudoeste 0 950.3 -- 91
2020-06-13 03:00:00 10.4 7 Oeste 13 Norte 0 949.8 -- 86
2020-06-13 02:00:00 10 14 Oeste 26 Sudoeste 0 949.5 -- 90
2020-06-13 01:00:00 10.6 12 Sudoeste 22 Sudoeste 0 949.5 -- 89
2020-06-13 00:00:00 10.6 13 Sudoeste 21 Sudoeste 0 949 -- 89
2020-06-12 23:00:00 11.4 6 Oeste 11 Sudoeste 0 948.5 -- 90
2020-06-12 22:00:00 11.5 9 Sur 11 Sur 0 947.9 -- 89
2020-06-12 21:00:00 12.4 10 Sur 15 Sudoeste 2.1 947.4 -- 91
2020-06-12 20:00:00 12.8 8 Sudoeste 35 Sur 0.4 946.9 -- 86
2020-06-12 19:00:00 14.6 20 Sur 32 Sur 0.1 946.1 -- 77
2020-06-12 18:00:00 12.8 12 Sur 33 Sudoeste 0.2 946.1 -- 87
2020-06-12 17:00:00 16.6 35 Oeste 52 Sudoeste 0 945 -- 56
2020-06-12 16:00:00 18.8 30 Sudoeste 50 Sudoeste 0 944 -- 45
2020-06-12 15:00:00 19.1 32 Sudoeste 58 Sudoeste 0 943.8 -- 41
2020-06-12 14:00:00 17.1 20 Sudoeste 41 Sudoeste 0 944 -- 50
2020-06-12 13:00:00 16.7 23 Sur 41 Sudoeste 0 943.8 -- 58
2020-06-12 12:00:00 16.2 31 Sudoeste 46 Sudoeste 0 943.7 -- 63
2020-06-12 11:00:00 13.8 29 Sur 42 Sudoeste 0 943.8 -- 67
2020-06-12 10:00:00 11.6 13 Sur 30 Sudoeste 0 943.8 -- 78
2020-06-12 09:00:00 11.2 21 Sur 41 Sudoeste 0 943.5 -- 77
2020-06-12 08:00:00 10.6 16 Sudoeste 28 Sudoeste 0 943.3 -- 77
2020-06-12 07:00:00 9.4 9 Sudoeste 41 Sudoeste 0 943.3 -- 79
2020-06-12 06:00:00 8.4 20 Sudoeste 45 Sudoeste 0 942.8 -- 83
2020-06-12 05:00:00 7.5 6 Sudoeste 24 Sur 0 942.8 -- 89
2020-06-12 04:00:00 5.5 6 Sur 21 Sur 0 942.7 -- 99
2020-06-12 03:00:00 5.3 6 Este 13 Norte 0 943.4 -- 99
2020-06-12 02:00:00 5.5 3 Sudeste 8 Sudeste 0 944.4 -- 98
2020-06-12 01:00:00 6.9 0 Calma 4 Noroeste 0 945.1 -- 96
2020-06-12 00:00:00 7.8 0 Calma 11 Este 0 946.1 -- 95